Accueil
METAR-TAF:

METAR-TAF

Aéroports :

Aéroport international L.F. Wade

Bermudes, Bermudes

latitude: 32-22N, longitude: 064-41W, altitude: 6 m

Observation

Le bulletin a été fait il y a 53 minutes, à 06:55 UTC
Vent 2 kt de sud-est
Température 18°C
Humidité 56%
Pression 1023 hPa
Visibilité 10 km ou plus
Quelques nuages à une hauteur de 4000 ft
Nuages épars à une hauteur de 19000 ft
Nuages fragmentés à une hauteur de 30000 ft

METAR: TXKF 030655Z 14002KT 9999 FEW040 SCT190 BKN300 18/09 Q1023

Heure: 04:48 (07:48 UTC)

Prévision

Le bulletin a été fait il y a 2 heures et 15 minutes, à 05:33 UTC
Prévision valable du 03 à 06 UTC au 04 à 06 UTC
Vent 3 kt de est
Visibilité 10 km ou plus
Quelques nuages à une hauteur de 4000 ft
Nuages épars à une hauteur de 30000 ft
Evoluant progressivement
du 03 à 11 UTC au 03 à 15 UTC
Vent 10 kt de sud

TAF: TXKF 030533Z 0306/0406 09003KT 9999 FEW040 SCT300 BECMG 0311/0315 18010KT

Observations et prévisions météorologiques de plus de 4000 aéroports (messages METAR et TAF).

Les stations disponibles sont représentées par des disques jaunes et rouges sur la carte.

Passer la souris dessus pour voir le nom de la station.

Cliquer dessus pour voir les observations et prévisions météorologiques.

Pour changer de carte: cliquez sur les boutons verts avec une croix noire pour zoomer, sur le bouton vert avec un tiret pour effectuer un zoom arrière, ou sur les flèches vertes pour les cartes adjacentes.


METAR-TAF: